sensor_id;sensor_type;location;lat;lon;timestamp;P1;durP1;ratioP1;P2;durP2;ratioP2
38725;SDS011;24474;48.906;8.808;2023-05-08T00:00:27;6.88;;;5.22;;
38725;SDS011;24474;48.906;8.808;2023-05-08T00:02:54;6.38;;;5.13;;
38725;SDS011;24474;48.906;8.808;2023-05-08T00:05:21;8.90;;;5.65;;
38725;SDS011;24474;48.906;8.808;2023-05-08T00:07:48;6.78;;;5.43;;
38725;SDS011;24474;48.906;8.808;2023-05-08T00:10:16;5.88;;;5.13;;
38725;SDS011;24474;48.906;8.808;2023-05-08T00:12:43;7.43;;;5.20;;
38725;SDS011;24474;48.906;8.808;2023-05-08T00:15:10;8.00;;;5.80;;
38725;SDS011;24474;48.906;8.808;2023-05-08T00:17:36;7.88;;;6.10;;
38725;SDS011;24474;48.906;8.808;2023-05-08T00:20:03;7.30;;;6.57;;
38725;SDS011;24474;48.906;8.808;2023-05-08T00:22:29;8.38;;;6.40;;
38725;SDS011;24474;48.906;8.808;2023-05-08T00:24:56;9.20;;;6.60;;
38725;SDS011;24474;48.906;8.808;2023-05-08T00:27:23;7.80;;;6.53;;
38725;SDS011;24474;48.906;8.808;2023-05-08T00:29:50;7.55;;;6.72;;
38725;SDS011;24474;48.906;8.808;2023-05-08T00:32:17;9.13;;;7.63;;
38725;SDS011;24474;48.906;8.808;2023-05-08T00:34:44;8.52;;;7.40;;
38725;SDS011;24474;48.906;8.808;2023-05-08T00:37:10;10.77;;;8.90;;
38725;SDS011;24474;48.906;8.808;2023-05-08T00:39:36;11.95;;;9.18;;
38725;SDS011;24474;48.906;8.808;2023-05-08T00:42:03;12.50;;;9.45;;
38725;SDS011;24474;48.906;8.808;2023-05-08T00:44:30;12.50;;;11.20;;
38725;SDS011;24474;48.906;8.808;2023-05-08T00:46:56;13.77;;;12.38;;
38725;SDS011;24474;48.906;8.808;2023-05-08T00:49:23;13.13;;;11.82;;
38725;SDS011;24474;48.906;8.808;2023-05-08T00:51:52;13.65;;;12.20;;
38725;SDS011;24474;48.906;8.808;2023-05-08T00:54:22;14.43;;;12.93;;
38725;SDS011;24474;48.906;8.808;2023-05-08T00:56:51;16.45;;;14.75;;
38725;SDS011;24474;48.906;8.808;2023-05-08T00:59:19;17.58;;;15.60;;
38725;SDS011;24474;48.906;8.808;2023-05-08T01:01:48;17.38;;;14.18;;
38725;SDS011;24474;48.906;8.808;2023-05-08T01:04:23;16.38;;;14.55;;
38725;SDS011;24474;48.906;8.808;2023-05-08T01:06:51;17.95;;;15.30;;
38725;SDS011;24474;48.906;8.808;2023-05-08T01:09:18;18.00;;;16.30;;
38725;SDS011;24474;48.906;8.808;2023-05-08T01:26:39;15.88;;;14.27;;
38725;SDS011;24474;48.906;8.808;2023-05-08T01:32:21;15.38;;;13.88;;
38725;SDS011;24474;48.906;8.808;2023-05-08T01:35:11;15.82;;;14.23;;
38725;SDS011;24474;48.906;8.808;2023-05-08T01:45:44;21.65;;;19.48;;
38725;SDS011;24474;48.906;8.808;2023-05-08T01:48:16;18.40;;;16.60;;
38725;SDS011;24474;48.906;8.808;2023-05-08T01:50:57;17.85;;;16.05;;
38725;SDS011;24474;48.906;8.808;2023-05-08T01:53:55;15.77;;;14.20;;
38725;SDS011;24474;48.906;8.808;2023-05-08T01:56:30;14.50;;;13.10;;
38725;SDS011;24474;48.906;8.808;2023-05-08T01:58:58;15.93;;;14.32;;
38725;SDS011;24474;48.906;8.808;2023-05-08T02:01:26;15.40;;;13.98;;
38725;SDS011;24474;48.906;8.808;2023-05-08T02:03:53;16.92;;;15.32;;
38725;SDS011;24474;48.906;8.808;2023-05-08T02:06:22;16.33;;;14.73;;
38725;SDS011;24474;48.906;8.808;2023-05-08T02:08:57;15.27;;;13.77;;
38725;SDS011;24474;48.906;8.808;2023-05-08T02:11:24;15.02;;;13.63;;
38725;SDS011;24474;48.906;8.808;2023-05-08T02:13:51;15.32;;;13.80;;
38725;SDS011;24474;48.906;8.808;2023-05-08T02:16:17;16.30;;;14.63;;
38725;SDS011;24474;48.906;8.808;2023-05-08T02:18:47;16.17;;;14.55;;
38725;SDS011;24474;48.906;8.808;2023-05-08T02:21:20;14.27;;;12.88;;
38725;SDS011;24474;48.906;8.808;2023-05-08T02:23:48;13.23;;;11.88;;
38725;SDS011;24474;48.906;8.808;2023-05-08T02:26:23;12.48;;;11.00;;
38725;SDS011;24474;48.906;8.808;2023-05-08T02:28:53;13.18;;;11.98;;
38725;SDS011;24474;48.906;8.808;2023-05-08T02:31:21;12.15;;;10.93;;
38725;SDS011;24474;48.906;8.808;2023-05-08T02:33:48;13.27;;;11.88;;
38725;SDS011;24474;48.906;8.808;2023-05-08T02:36:17;12.60;;;11.07;;
38725;SDS011;24474;48.906;8.808;2023-05-08T02:38:49;12.23;;;10.82;;
38725;SDS011;24474;48.906;8.808;2023-05-08T02:41:18;12.32;;;11.13;;
38725;SDS011;24474;48.906;8.808;2023-05-08T02:43:48;11.95;;;10.77;;
38725;SDS011;24474;48.906;8.808;2023-05-08T02:46:23;13.52;;;11.57;;
38725;SDS011;24474;48.906;8.808;2023-05-08T02:49:19;11.85;;;10.65;;
38725;SDS011;24474;48.906;8.808;2023-05-08T02:52:03;13.02;;;11.73;;
38725;SDS011;24474;48.906;8.808;2023-05-08T02:54:54;14.38;;;12.88;;
38725;SDS011;24474;48.906;8.808;2023-05-08T03:00:41;16.48;;;14.88;;
38725;SDS011;24474;48.906;8.808;2023-05-08T03:03:37;23.98;;;20.58;;
38725;SDS011;24474;48.906;8.808;2023-05-08T03:06:07;25.27;;;22.70;;
38725;SDS011;24474;48.906;8.808;2023-05-08T03:08:42;25.40;;;22.80;;
38725;SDS011;24474;48.906;8.808;2023-05-08T03:11:12;24.63;;;22.13;;
38725;SDS011;24474;48.906;8.808;2023-05-08T03:13:45;25.23;;;22.65;;
38725;SDS011;24474;48.906;8.808;2023-05-08T03:16:19;25.10;;;22.58;;
38725;SDS011;24474;48.906;8.808;2023-05-08T03:18:51;23.08;;;20.77;;
38725;SDS011;24474;48.906;8.808;2023-05-08T03:21:27;23.30;;;20.90;;
38725;SDS011;24474;48.906;8.808;2023-05-08T03:23:56;23.35;;;21.00;;
38725;SDS011;24474;48.906;8.808;2023-05-08T03:26:25;21.45;;;19.35;;
38725;SDS011;24474;48.906;8.808;2023-05-08T03:28:51;20.30;;;18.35;;
38725;SDS011;24474;48.906;8.808;2023-05-08T03:31:20;22.02;;;19.75;;
38725;SDS011;24474;48.906;8.808;2023-05-08T03:33:49;23.48;;;21.13;;
38725;SDS011;24474;48.906;8.808;2023-05-08T03:36:17;20.85;;;18.85;;
38725;SDS011;24474;48.906;8.808;2023-05-08T03:38:43;23.17;;;20.80;;
38725;SDS011;24474;48.906;8.808;2023-05-08T03:41:09;23.60;;;21.20;;
38725;SDS011;24474;48.906;8.808;2023-05-08T03:43:37;24.77;;;22.08;;
38725;SDS011;24474;48.906;8.808;2023-05-08T03:46:06;23.65;;;21.25;;
38725;SDS011;24474;48.906;8.808;2023-05-08T03:48:35;22.88;;;20.58;;
38725;SDS011;24474;48.906;8.808;2023-05-08T03:51:03;22.67;;;20.38;;
38725;SDS011;24474;48.906;8.808;2023-05-08T03:53:31;22.00;;;19.80;;
38725;SDS011;24474;48.906;8.808;2023-05-08T03:55:58;22.48;;;20.27;;
38725;SDS011;24474;48.906;8.808;2023-05-08T03:58:39;22.60;;;20.40;;
38725;SDS011;24474;48.906;8.808;2023-05-08T04:07:14;24.25;;;21.75;;
38725;SDS011;24474;48.906;8.808;2023-05-08T04:15:25;23.70;;;21.30;;
38725;SDS011;24474;48.906;8.808;2023-05-08T04:18:09;22.63;;;20.35;;
38725;SDS011;24474;48.906;8.808;2023-05-08T04:20:40;21.67;;;19.58;;
38725;SDS011;24474;48.906;8.808;2023-05-08T04:23:07;22.35;;;20.17;;
38725;SDS011;24474;48.906;8.808;2023-05-08T04:25:39;23.70;;;21.35;;
38725;SDS011;24474;48.906;8.808;2023-05-08T04:28:06;20.67;;;18.58;;
38725;SDS011;24474;48.906;8.808;2023-05-08T04:30:34;19.10;;;16.92;;
38725;SDS011;24474;48.906;8.808;2023-05-08T04:33:01;18.40;;;16.60;;
38725;SDS011;24474;48.906;8.808;2023-05-08T04:35:28;19.48;;;17.48;;
38725;SDS011;24474;48.906;8.808;2023-05-08T04:37:54;20.05;;;18.05;;
38725;SDS011;24474;48.906;8.808;2023-05-08T04:40:20;20.17;;;18.20;;
38725;SDS011;24474;48.906;8.808;2023-05-08T04:42:46;19.92;;;17.98;;
38725;SDS011;24474;48.906;8.808;2023-05-08T04:45:13;20.38;;;18.48;;
38725;SDS011;24474;48.906;8.808;2023-05-08T04:47:41;18.88;;;16.92;;
38725;SDS011;24474;48.906;8.808;2023-05-08T04:50:08;20.45;;;18.40;;
38725;SDS011;24474;48.906;8.808;2023-05-08T04:52:35;20.83;;;18.75;;
38725;SDS011;24474;48.906;8.808;2023-05-08T04:55:02;19.75;;;17.85;;
38725;SDS011;24474;48.906;8.808;2023-05-08T04:57:28;19.00;;;16.30;;
38725;SDS011;24474;48.906;8.808;2023-05-08T04:59:55;18.20;;;16.30;;
38725;SDS011;24474;48.906;8.808;2023-05-08T05:02:24;19.50;;;16.23;;
38725;SDS011;24474;48.906;8.808;2023-05-08T05:04:50;17.38;;;15.50;;
38725;SDS011;24474;48.906;8.808;2023-05-08T05:07:16;18.05;;;16.17;;
38725;SDS011;24474;48.906;8.808;2023-05-08T05:09:42;19.58;;;17.65;;
38725;SDS011;24474;48.906;8.808;2023-05-08T05:12:09;20.13;;;18.13;;
38725;SDS011;24474;48.906;8.808;2023-05-08T05:14:35;19.17;;;17.27;;
38725;SDS011;24474;48.906;8.808;2023-05-08T05:17:02;20.48;;;18.27;;
38725;SDS011;24474;48.906;8.808;2023-05-08T05:19:29;22.88;;;20.58;;
38725;SDS011;24474;48.906;8.808;2023-05-08T05:21:56;25.48;;;22.90;;
38725;SDS011;24474;48.906;8.808;2023-05-08T05:24:23;30.15;;;27.10;;
38725;SDS011;24474;48.906;8.808;2023-05-08T05:26:49;27.40;;;24.63;;
38725;SDS011;24474;48.906;8.808;2023-05-08T05:29:17;26.80;;;24.08;;
38725;SDS011;24474;48.906;8.808;2023-05-08T05:31:43;28.83;;;25.90;;
38725;SDS011;24474;48.906;8.808;2023-05-08T05:34:10;31.00;;;27.70;;
38725;SDS011;24474;48.906;8.808;2023-05-08T05:36:35;31.98;;;28.58;;
38725;SDS011;24474;48.906;8.808;2023-05-08T05:39:02;29.63;;;26.42;;
38725;SDS011;24474;48.906;8.808;2023-05-08T05:41:29;32.05;;;27.63;;
38725;SDS011;24474;48.906;8.808;2023-05-08T05:43:56;29.27;;;25.85;;
38725;SDS011;24474;48.906;8.808;2023-05-08T05:46:24;28.45;;;25.35;;
38725;SDS011;24474;48.906;8.808;2023-05-08T05:48:57;26.65;;;23.75;;
38725;SDS011;24474;48.906;8.808;2023-05-08T05:51:26;26.13;;;23.27;;
38725;SDS011;24474;48.906;8.808;2023-05-08T05:53:54;31.38;;;28.10;;
38725;SDS011;24474;48.906;8.808;2023-05-08T05:56:22;29.67;;;26.58;;
38725;SDS011;24474;48.906;8.808;2023-05-08T05:58:47;31.55;;;28.15;;
38725;SDS011;24474;48.906;8.808;2023-05-08T06:01:14;28.92;;;25.92;;
38725;SDS011;24474;48.906;8.808;2023-05-08T06:03:41;27.98;;;24.98;;
38725;SDS011;24474;48.906;8.808;2023-05-08T06:06:06;25.27;;;22.67;;
38725;SDS011;24474;48.906;8.808;2023-05-08T06:08:36;23.92;;;21.45;;
38725;SDS011;24474;48.906;8.808;2023-05-08T06:11:03;25.60;;;22.88;;
38725;SDS011;24474;48.906;8.808;2023-05-08T06:13:30;24.30;;;21.70;;
38725;SDS011;24474;48.906;8.808;2023-05-08T06:15:57;22.65;;;20.17;;
38725;SDS011;24474;48.906;8.808;2023-05-08T06:18:23;21.55;;;19.25;;
38725;SDS011;24474;48.906;8.808;2023-05-08T06:20:53;21.50;;;19.40;;
38725;SDS011;24474;48.906;8.808;2023-05-08T06:23:22;21.73;;;18.02;;
38725;SDS011;24474;48.906;8.808;2023-05-08T06:25:48;23.40;;;21.02;;
38725;SDS011;24474;48.906;8.808;2023-05-08T06:28:13;23.35;;;20.80;;
38725;SDS011;24474;48.906;8.808;2023-05-08T06:30:39;19.65;;;17.55;;
38725;SDS011;24474;48.906;8.808;2023-05-08T06:33:05;21.75;;;18.75;;
38725;SDS011;24474;48.906;8.808;2023-05-08T06:35:30;20.88;;;18.67;;
38725;SDS011;24474;48.906;8.808;2023-05-08T06:37:56;20.20;;;18.20;;
38725;SDS011;24474;48.906;8.808;2023-05-08T06:40:21;20.23;;;18.13;;
38725;SDS011;24474;48.906;8.808;2023-05-08T06:42:47;20.23;;;18.23;;
38725;SDS011;24474;48.906;8.808;2023-05-08T06:45:13;19.13;;;17.23;;
38725;SDS011;24474;48.906;8.808;2023-05-08T06:47:39;19.95;;;17.85;;
38725;SDS011;24474;48.906;8.808;2023-05-08T06:50:05;18.23;;;16.08;;
38725;SDS011;24474;48.906;8.808;2023-05-08T06:52:31;19.75;;;17.73;;
38725;SDS011;24474;48.906;8.808;2023-05-08T06:54:57;16.88;;;15.15;;
38725;SDS011;24474;48.906;8.808;2023-05-08T06:57:24;25.13;;;15.30;;
38725;SDS011;24474;48.906;8.808;2023-05-08T06:59:52;19.48;;;17.48;;
38725;SDS011;24474;48.906;8.808;2023-05-08T07:02:19;16.45;;;14.68;;
38725;SDS011;24474;48.906;8.808;2023-05-08T07:04:46;16.58;;;14.98;;
38725;SDS011;24474;48.906;8.808;2023-05-08T07:07:11;15.30;;;13.65;;
38725;SDS011;24474;48.906;8.808;2023-05-08T07:09:39;16.35;;;14.75;;
38725;SDS011;24474;48.906;8.808;2023-05-08T07:12:06;16.45;;;14.85;;
38725;SDS011;24474;48.906;8.808;2023-05-08T07:14:33;17.25;;;15.48;;
38725;SDS011;24474;48.906;8.808;2023-05-08T07:17:03;17.33;;;14.85;;
38725;SDS011;24474;48.906;8.808;2023-05-08T07:19:32;16.67;;;14.73;;
38725;SDS011;24474;48.906;8.808;2023-05-08T07:22:03;15.80;;;14.23;;
38725;SDS011;24474;48.906;8.808;2023-05-08T07:24:29;13.70;;;12.30;;
38725;SDS011;24474;48.906;8.808;2023-05-08T07:26:57;14.15;;;12.65;;
38725;SDS011;24474;48.906;8.808;2023-05-08T07:29:25;13.88;;;11.95;;
38725;SDS011;24474;48.906;8.808;2023-05-08T07:31:51;12.82;;;11.50;;
38725;SDS011;24474;48.906;8.808;2023-05-08T07:34:16;12.80;;;11.50;;
38725;SDS011;24474;48.906;8.808;2023-05-08T07:36:43;12.93;;;11.60;;
38725;SDS011;24474;48.906;8.808;2023-05-08T07:39:10;12.02;;;10.77;;
38725;SDS011;24474;48.906;8.808;2023-05-08T07:41:37;13.43;;;11.95;;
38725;SDS011;24474;48.906;8.808;2023-05-08T07:44:06;12.45;;;11.15;;
38725;SDS011;24474;48.906;8.808;2023-05-08T07:46:33;10.88;;;9.75;;
38725;SDS011;24474;48.906;8.808;2023-05-08T07:49:00;10.77;;;9.68;;
38725;SDS011;24474;48.906;8.808;2023-05-08T07:51:27;10.63;;;9.43;;
38725;SDS011;24474;48.906;8.808;2023-05-08T07:53:53;10.40;;;9.40;;
38725;SDS011;24474;48.906;8.808;2023-05-08T07:56:20;9.73;;;8.73;;
38725;SDS011;24474;48.906;8.808;2023-05-08T07:58:51;11.75;;;8.38;;
38725;SDS011;24474;48.906;8.808;2023-05-08T08:01:18;10.15;;;9.15;;
38725;SDS011;24474;48.906;8.808;2023-05-08T08:03:44;10.13;;;9.10;;
38725;SDS011;24474;48.906;8.808;2023-05-08T08:06:11;9.02;;;8.07;;
38725;SDS011;24474;48.906;8.808;2023-05-08T08:08:38;10.00;;;8.63;;
38725;SDS011;24474;48.906;8.808;2023-05-08T08:11:04;10.00;;;8.50;;
38725;SDS011;24474;48.906;8.808;2023-05-08T08:13:32;10.95;;;8.43;;
38725;SDS011;24474;48.906;8.808;2023-05-08T08:16:03;10.55;;;8.52;;
38725;SDS011;24474;48.906;8.808;2023-05-08T08:18:29;9.55;;;8.13;;
38725;SDS011;24474;48.906;8.808;2023-05-08T08:20:57;9.27;;;8.27;;
38725;SDS011;24474;48.906;8.808;2023-05-08T08:23:23;9.30;;;8.32;;
38725;SDS011;24474;48.906;8.808;2023-05-08T08:25:50;8.05;;;7.05;;
38725;SDS011;24474;48.906;8.808;2023-05-08T08:28:18;8.77;;;7.03;;
38725;SDS011;24474;48.906;8.808;2023-05-08T08:30:45;8.30;;;7.50;;
38725;SDS011;24474;48.906;8.808;2023-05-08T08:33:12;11.10;;;8.98;;
38725;SDS011;24474;48.906;8.808;2023-05-08T08:35:37;12.88;;;10.27;;
38725;SDS011;24474;48.906;8.808;2023-05-08T08:38:03;8.38;;;7.57;;
38725;SDS011;24474;48.906;8.808;2023-05-08T08:40:29;9.27;;;8.38;;
38725;SDS011;24474;48.906;8.808;2023-05-08T08:42:56;7.88;;;6.40;;
38725;SDS011;24474;48.906;8.808;2023-05-08T08:45:22;7.53;;;6.82;;
38725;SDS011;24474;48.906;8.808;2023-05-08T08:47:47;7.60;;;6.80;;
38725;SDS011;24474;48.906;8.808;2023-05-08T08:50:16;7.97;;;7.18;;
38725;SDS011;24474;48.906;8.808;2023-05-08T08:53:00;7.38;;;6.68;;
38725;SDS011;24474;48.906;8.808;2023-05-08T08:55:43;7.95;;;7.15;;
38725;SDS011;24474;48.906;8.808;2023-05-08T09:00:49;6.72;;;5.80;;
38725;SDS011;24474;48.906;8.808;2023-05-08T09:03:14;6.45;;;5.60;;
38725;SDS011;24474;48.906;8.808;2023-05-08T09:05:41;7.55;;;6.80;;
38725;SDS011;24474;48.906;8.808;2023-05-08T09:08:09;7.07;;;6.38;;
38725;SDS011;24474;48.906;8.808;2023-05-08T09:10:38;9.32;;;7.35;;
38725;SDS011;24474;48.906;8.808;2023-05-08T09:13:03;7.85;;;6.38;;
38725;SDS011;24474;48.906;8.808;2023-05-08T09:15:30;11.43;;;9.05;;
38725;SDS011;24474;48.906;8.808;2023-05-08T09:17:59;9.05;;;7.80;;
38725;SDS011;24474;48.906;8.808;2023-05-08T09:20:28;10.85;;;7.97;;
38725;SDS011;24474;48.906;8.808;2023-05-08T09:22:55;10.45;;;9.27;;
38725;SDS011;24474;48.906;8.808;2023-05-08T09:25:26;9.88;;;8.88;;
38725;SDS011;24474;48.906;8.808;2023-05-08T09:28:21;9.85;;;8.85;;
38725;SDS011;24474;48.906;8.808;2023-05-08T09:30:55;8.43;;;7.10;;
38725;SDS011;24474;48.906;8.808;2023-05-08T09:33:26;8.20;;;7.28;;
38725;SDS011;24474;48.906;8.808;2023-05-08T09:35:55;7.85;;;7.05;;
38725;SDS011;24474;48.906;8.808;2023-05-08T09:38:35;7.88;;;7.07;;
38725;SDS011;24474;48.906;8.808;2023-05-08T09:41:06;7.13;;;6.43;;
38725;SDS011;24474;48.906;8.808;2023-05-08T09:43:41;7.60;;;6.85;;
38725;SDS011;24474;48.906;8.808;2023-05-08T09:46:24;9.27;;;7.70;;
38725;SDS011;24474;48.906;8.808;2023-05-08T09:48:54;7.22;;;6.50;;
38725;SDS011;24474;48.906;8.808;2023-05-08T09:51:22;7.80;;;7.00;;
38725;SDS011;24474;48.906;8.808;2023-05-08T09:53:51;8.40;;;7.47;;
38725;SDS011;24474;48.906;8.808;2023-05-08T09:59:26;7.55;;;6.00;;
38725;SDS011;24474;48.906;8.808;2023-05-08T10:01:54;8.18;;;6.10;;
38725;SDS011;24474;48.906;8.808;2023-05-08T10:04:35;6.07;;;5.20;;
38725;SDS011;24474;48.906;8.808;2023-05-08T10:07:03;6.13;;;4.97;;
38725;SDS011;24474;48.906;8.808;2023-05-08T10:09:30;5.07;;;4.57;;
38725;SDS011;24474;48.906;8.808;2023-05-08T10:11:57;4.70;;;4.05;;
38725;SDS011;24474;48.906;8.808;2023-05-08T10:14:24;4.60;;;3.60;;
38725;SDS011;24474;48.906;8.808;2023-05-08T10:16:51;6.38;;;4.85;;
38725;SDS011;24474;48.906;8.808;2023-05-08T10:19:22;5.30;;;4.65;;
38725;SDS011;24474;48.906;8.808;2023-05-08T10:21:53;5.63;;;5.03;;
38725;SDS011;24474;48.906;8.808;2023-05-08T10:24:31;5.40;;;4.63;;
38725;SDS011;24474;48.906;8.808;2023-05-08T10:29:49;6.68;;;4.95;;
38725;SDS011;24474;48.906;8.808;2023-05-08T10:32:19;5.43;;;4.75;;
38725;SDS011;24474;48.906;8.808;2023-05-08T10:34:51;7.65;;;5.60;;
38725;SDS011;24474;48.906;8.808;2023-05-08T10:37:17;6.15;;;5.00;;
38725;SDS011;24474;48.906;8.808;2023-05-08T10:39:44;4.95;;;4.20;;
38725;SDS011;24474;48.906;8.808;2023-05-08T10:42:12;5.50;;;4.85;;
38725;SDS011;24474;48.906;8.808;2023-05-08T10:44:39;6.07;;;5.47;;
38725;SDS011;24474;48.906;8.808;2023-05-08T10:47:26;6.47;;;5.10;;
38725;SDS011;24474;48.906;8.808;2023-05-08T10:50:11;6.20;;;4.90;;
38725;SDS011;24474;48.906;8.808;2023-05-08T10:52:53;4.75;;;3.90;;
38725;SDS011;24474;48.906;8.808;2023-05-08T10:55:30;4.38;;;3.75;;
38725;SDS011;24474;48.906;8.808;2023-05-08T10:58:00;6.40;;;4.10;;
38725;SDS011;24474;48.906;8.808;2023-05-08T11:01:11;4.03;;;3.60;;
38725;SDS011;24474;48.906;8.808;2023-05-08T11:03:25;4.88;;;3.15;;
38725;SDS011;24474;48.906;8.808;2023-05-08T11:05:54;3.17;;;2.72;;
38725;SDS011;24474;48.906;8.808;2023-05-08T11:08:23;3.53;;;2.90;;
38725;SDS011;24474;48.906;8.808;2023-05-08T11:11:09;3.50;;;2.90;;
38725;SDS011;24474;48.906;8.808;2023-05-08T11:13:57;4.65;;;3.90;;
38725;SDS011;24474;48.906;8.808;2023-05-08T11:19:28;3.53;;;3.20;;
38725;SDS011;24474;48.906;8.808;2023-05-08T11:24:46;5.07;;;3.60;;
38725;SDS011;24474;48.906;8.808;2023-05-08T11:27:15;5.15;;;4.10;;
38725;SDS011;24474;48.906;8.808;2023-05-08T11:29:42;5.57;;;4.53;;
38725;SDS011;24474;48.906;8.808;2023-05-08T11:32:10;6.00;;;5.05;;
38725;SDS011;24474;48.906;8.808;2023-05-08T11:34:45;5.97;;;5.20;;
38725;SDS011;24474;48.906;8.808;2023-05-08T11:37:20;5.85;;;5.00;;
38725;SDS011;24474;48.906;8.808;2023-05-08T11:39:49;7.20;;;6.47;;
38725;SDS011;24474;48.906;8.808;2023-05-08T11:45:04;7.22;;;6.47;;
38725;SDS011;24474;48.906;8.808;2023-05-08T11:47:38;8.27;;;7.13;;
38725;SDS011;24474;48.906;8.808;2023-05-08T11:50:11;7.00;;;6.30;;
38725;SDS011;24474;48.906;8.808;2023-05-08T11:52:41;7.93;;;7.13;;
38725;SDS011;24474;48.906;8.808;2023-05-08T11:55:10;9.15;;;7.13;;
38725;SDS011;24474;48.906;8.808;2023-05-08T11:57:37;8.65;;;7.57;;
38725;SDS011;24474;48.906;8.808;2023-05-08T12:00:06;7.53;;;6.72;;
38725;SDS011;24474;48.906;8.808;2023-05-08T12:02:34;8.95;;;7.75;;
38725;SDS011;24474;48.906;8.808;2023-05-08T12:05:04;7.43;;;6.72;;
38725;SDS011;24474;48.906;8.808;2023-05-08T12:07:32;8.35;;;7.43;;
38725;SDS011;24474;48.906;8.808;2023-05-08T12:10:07;9.35;;;7.75;;
38725;SDS011;24474;48.906;8.808;2023-05-08T12:12:38;8.13;;;7.32;;
38725;SDS011;24474;48.906;8.808;2023-05-08T12:15:05;9.73;;;7.15;;
38725;SDS011;24474;48.906;8.808;2023-05-08T12:17:36;8.10;;;7.30;;
38725;SDS011;24474;48.906;8.808;2023-05-08T12:20:16;7.70;;;6.90;;
38725;SDS011;24474;48.906;8.808;2023-05-08T12:22:49;8.73;;;7.82;;
38725;SDS011;24474;48.906;8.808;2023-05-08T12:25:17;9.63;;;8.13;;
38725;SDS011;24474;48.906;8.808;2023-05-08T12:27:45;9.07;;;8.18;;
38725;SDS011;24474;48.906;8.808;2023-05-08T12:30:12;10.73;;;9.63;;
38725;SDS011;24474;48.906;8.808;2023-05-08T12:32:43;11.13;;;9.70;;
38725;SDS011;24474;48.906;8.808;2023-05-08T12:35:10;10.23;;;9.23;;
38725;SDS011;24474;48.906;8.808;2023-05-08T12:37:38;9.63;;;8.63;;
38725;SDS011;24474;48.906;8.808;2023-05-08T12:40:06;11.18;;;9.98;;
38725;SDS011;24474;48.906;8.808;2023-05-08T12:45:26;10.68;;;9.57;;
38725;SDS011;24474;48.906;8.808;2023-05-08T12:48:01;10.43;;;9.27;;
38725;SDS011;24474;48.906;8.808;2023-05-08T12:50:34;11.18;;;10.07;;
38725;SDS011;24474;48.906;8.808;2023-05-08T12:53:03;12.32;;;11.05;;
38725;SDS011;24474;48.906;8.808;2023-05-08T12:55:31;9.13;;;8.23;;
38725;SDS011;24474;48.906;8.808;2023-05-08T12:58:08;10.82;;;8.18;;
38725;SDS011;24474;48.906;8.808;2023-05-08T13:00:45;10.65;;;8.00;;
38725;SDS011;24474;48.906;8.808;2023-05-08T13:03:20;9.85;;;8.20;;
38725;SDS011;24474;48.906;8.808;2023-05-08T13:05:48;11.48;;;8.32;;
38725;SDS011;24474;48.906;8.808;2023-05-08T13:08:14;10.00;;;8.10;;
38725;SDS011;24474;48.906;8.808;2023-05-08T13:10:50;9.35;;;7.65;;
38725;SDS011;24474;48.906;8.808;2023-05-08T13:13:20;11.02;;;9.00;;
38725;SDS011;24474;48.906;8.808;2023-05-08T13:15:50;9.73;;;8.80;;
38725;SDS011;24474;48.906;8.808;2023-05-08T13:18:17;11.23;;;9.65;;
38725;SDS011;24474;48.906;8.808;2023-05-08T13:20:44;12.25;;;9.48;;
38725;SDS011;24474;48.906;8.808;2023-05-08T13:23:10;9.93;;;8.93;;
38725;SDS011;24474;48.906;8.808;2023-05-08T13:25:36;11.88;;;9.98;;
38725;SDS011;24474;48.906;8.808;2023-05-08T13:28:03;13.40;;;11.18;;
38725;SDS011;24474;48.906;8.808;2023-05-08T13:30:29;12.23;;;10.05;;
38725;SDS011;24474;48.906;8.808;2023-05-08T13:32:55;11.93;;;10.55;;
38725;SDS011;24474;48.906;8.808;2023-05-08T13:35:21;10.50;;;9.40;;
38725;SDS011;24474;48.906;8.808;2023-05-08T13:37:47;11.38;;;10.18;;
38725;SDS011;24474;48.906;8.808;2023-05-08T13:40:13;10.63;;;9.48;;
38725;SDS011;24474;48.906;8.808;2023-05-08T13:42:39;11.15;;;9.82;;
38725;SDS011;24474;48.906;8.808;2023-05-08T13:45:06;11.73;;;9.90;;
38725;SDS011;24474;48.906;8.808;2023-05-08T13:47:34;11.75;;;9.70;;
38725;SDS011;24474;48.906;8.808;2023-05-08T13:50:01;11.40;;;10.05;;
38725;SDS011;24474;48.906;8.808;2023-05-08T13:52:27;12.27;;;10.98;;
38725;SDS011;24474;48.906;8.808;2023-05-08T13:54:55;14.18;;;10.63;;
38725;SDS011;24474;48.906;8.808;2023-05-08T13:57:22;10.93;;;9.60;;
38725;SDS011;24474;48.906;8.808;2023-05-08T13:59:48;12.02;;;10.82;;
38725;SDS011;24474;48.906;8.808;2023-05-08T14:02:14;11.95;;;10.75;;
38725;SDS011;24474;48.906;8.808;2023-05-08T14:04:40;10.95;;;9.85;;
38725;SDS011;24474;48.906;8.808;2023-05-08T14:07:06;12.13;;;10.63;;
38725;SDS011;24474;48.906;8.808;2023-05-08T14:09:31;12.00;;;10.77;;
38725;SDS011;24474;48.906;8.808;2023-05-08T14:11:57;11.90;;;10.68;;
38725;SDS011;24474;48.906;8.808;2023-05-08T14:14:23;16.50;;;11.57;;
38725;SDS011;24474;48.906;8.808;2023-05-08T14:16:49;14.15;;;12.68;;
38725;SDS011;24474;48.906;8.808;2023-05-08T14:19:15;14.02;;;12.52;;
38725;SDS011;24474;48.906;8.808;2023-05-08T14:21:42;13.18;;;11.80;;
38725;SDS011;24474;48.906;8.808;2023-05-08T14:24:08;13.93;;;11.73;;
38725;SDS011;24474;48.906;8.808;2023-05-08T14:26:34;13.55;;;11.82;;
38725;SDS011;24474;48.906;8.808;2023-05-08T14:29:00;13.60;;;12.07;;
38725;SDS011;24474;48.906;8.808;2023-05-08T14:31:25;15.13;;;13.55;;
38725;SDS011;24474;48.906;8.808;2023-05-08T14:33:51;13.63;;;12.32;;
38725;SDS011;24474;48.906;8.808;2023-05-08T14:36:17;12.70;;;11.40;;
38725;SDS011;24474;48.906;8.808;2023-05-08T14:38:42;13.50;;;11.93;;
38725;SDS011;24474;48.906;8.808;2023-05-08T14:41:08;14.38;;;12.88;;
38725;SDS011;24474;48.906;8.808;2023-05-08T14:43:34;13.07;;;11.70;;
38725;SDS011;24474;48.906;8.808;2023-05-08T14:46:00;12.85;;;11.40;;
38725;SDS011;24474;48.906;8.808;2023-05-08T14:48:25;12.55;;;11.27;;
38725;SDS011;24474;48.906;8.808;2023-05-08T14:50:51;12.88;;;11.63;;
38725;SDS011;24474;48.906;8.808;2023-05-08T14:53:17;12.93;;;11.52;;
38725;SDS011;24474;48.906;8.808;2023-05-08T14:55:43;12.45;;;11.20;;
38725;SDS011;24474;48.906;8.808;2023-05-08T14:58:08;14.82;;;12.15;;
38725;SDS011;24474;48.906;8.808;2023-05-08T15:00:34;13.65;;;12.13;;
38725;SDS011;24474;48.906;8.808;2023-05-08T15:03:00;14.25;;;12.60;;
38725;SDS011;24474;48.906;8.808;2023-05-08T15:05:26;13.80;;;12.43;;
38725;SDS011;24474;48.906;8.808;2023-05-08T15:07:54;14.95;;;12.50;;
38725;SDS011;24474;48.906;8.808;2023-05-08T15:10:21;14.05;;;12.68;;
38725;SDS011;24474;48.906;8.808;2023-05-08T15:12:47;15.43;;;13.82;;
38725;SDS011;24474;48.906;8.808;2023-05-08T15:15:13;14.07;;;12.20;;
38725;SDS011;24474;48.906;8.808;2023-05-08T15:17:38;13.48;;;12.13;;
38725;SDS011;24474;48.906;8.808;2023-05-08T15:20:07;14.43;;;12.93;;
38725;SDS011;24474;48.906;8.808;2023-05-08T15:22:33;14.10;;;12.23;;
38725;SDS011;24474;48.906;8.808;2023-05-08T15:25:03;14.35;;;12.95;;
38725;SDS011;24474;48.906;8.808;2023-05-08T15:27:30;15.35;;;13.80;;
38725;SDS011;24474;48.906;8.808;2023-05-08T15:29:57;15.55;;;14.05;;
38725;SDS011;24474;48.906;8.808;2023-05-08T15:32:24;14.68;;;13.18;;
38725;SDS011;24474;48.906;8.808;2023-05-08T15:34:51;15.15;;;13.55;;
38725;SDS011;24474;48.906;8.808;2023-05-08T15:37:17;13.82;;;12.35;;
38725;SDS011;24474;48.906;8.808;2023-05-08T15:39:42;15.75;;;13.73;;
38725;SDS011;24474;48.906;8.808;2023-05-08T15:42:08;15.90;;;14.30;;